createdAt,value
2016-04-08T00:00:22.490Z,11.73
2016-04-08T00:01:22.508Z,11.7
2016-04-08T00:02:22.557Z,11.72
2016-04-08T00:03:22.576Z,11.66
2016-04-08T00:04:22.579Z,11.75
2016-04-08T00:05:22.598Z,11.75
2016-04-08T00:06:22.615Z,11.77
2016-04-08T00:07:22.634Z,11.73
2016-04-08T00:08:22.652Z,11.73
2016-04-08T00:09:22.687Z,11.66
2016-04-08T00:10:22.704Z,11.65
2016-04-08T00:11:22.723Z,11.68
2016-04-08T00:12:22.742Z,11.65
2016-04-08T00:13:22.749Z,11.68
2016-04-08T00:14:22.782Z,11.57
2016-04-08T00:15:22.800Z,11.59
2016-04-08T00:16:22.834Z,11.6
2016-04-08T00:17:22.852Z,11.59
2016-04-08T00:18:22.855Z,11.62
2016-04-08T00:19:22.874Z,11.63
2016-04-08T00:20:22.923Z,11.62
2016-04-08T00:21:22.910Z,11.52
2016-04-08T00:22:22.944Z,11.65
2016-04-08T00:23:22.978Z,11.55
2016-04-08T00:24:22.996Z,11.57
2016-04-08T00:25:22.998Z,11.48
2016-04-08T00:26:23.017Z,11.52
2016-04-08T00:27:23.051Z,11.52
2016-04-08T00:28:23.084Z,11.47
2016-04-08T00:29:23.087Z,11.5
2016-04-08T00:30:23.105Z,11.55
2016-04-08T00:31:23.124Z,11.5
2016-04-08T00:32:23.142Z,11.47
2016-04-08T00:33:23.176Z,11.45
2016-04-08T00:34:23.180Z,11.52
2016-04-08T00:35:23.197Z,11.47
2016-04-08T00:36:23.247Z,11.5
2016-04-08T00:37:23.234Z,11.47
2016-04-08T00:38:23.252Z,11.5
2016-04-08T00:39:23.286Z,11.4
2016-04-08T00:40:23.305Z,11.5
2016-04-08T00:41:23.323Z,11.44
2016-04-08T00:42:23.341Z,11.41
2016-04-08T00:43:23.359Z,11.37
2016-04-08T00:44:23.377Z,11.44
2016-04-08T00:45:23.412Z,11.4
2016-04-08T00:46:23.429Z,11.36
2016-04-08T00:47:23.432Z,11.4
2016-04-08T00:48:23.451Z,11.43
2016-04-08T00:49:23.485Z,11.41
2016-04-08T00:50:23.504Z,11.36
2016-04-08T00:51:23.521Z,11.36
2016-04-08T00:52:23.540Z,11.3
2016-04-08T00:53:23.573Z,11.36
2016-04-08T00:54:23.592Z,11.37
2016-04-08T00:55:23.595Z,11.41
2016-04-08T00:56:23.613Z,11.33
2016-04-08T00:57:23.648Z,11.27
2016-04-08T00:58:23.650Z,11.29
2016-04-08T00:59:23.684Z,11.33
2016-04-08T01:00:23.702Z,11.3
2016-04-08T01:01:23.720Z,11.3
2016-04-08T01:02:23.755Z,11.3
2016-04-08T01:03:23.757Z,11.26
2016-04-08T01:04:23.775Z,11.27
2016-04-08T01:05:23.809Z,11.29
2016-04-08T01:06:23.811Z,11.23
2016-04-08T01:07:23.861Z,11.3
2016-04-08T01:08:23.864Z,11.25
2016-04-08T01:09:23.913Z,11.25
2016-04-08T01:10:23.902Z,11.23
2016-04-08T01:11:23.935Z,11.26
2016-04-08T01:12:23.953Z,11.18
2016-04-08T01:13:23.956Z,11.22
2016-04-08T01:14:23.974Z,11.19
2016-04-08T01:15:23.993Z,11.18
2016-04-08T01:16:24.010Z,11.17
2016-04-08T01:17:24.045Z,11.18
2016-04-08T01:18:24.063Z,11.19
2016-04-08T01:19:24.081Z,11.22
2016-04-08T01:20:24.115Z,11.14
2016-04-08T01:21:24.117Z,11.15
2016-04-08T01:22:24.136Z,11.14
2016-04-08T01:23:24.154Z,11.11
2016-04-08T01:24:24.189Z,11.12
2016-04-08T01:25:24.207Z,11.15
2016-04-08T01:26:24.209Z,11.17
2016-04-08T01:27:24.228Z,11.19
2016-04-08T01:28:24.261Z,11.17
2016-04-08T01:29:24.280Z,11.11
2016-04-08T01:30:24.298Z,11.19
2016-04-08T01:31:24.316Z,11.18
2016-04-08T01:32:24.538Z,11.19
2016-04-08T01:33:24.369Z,11.1
2016-04-08T01:34:24.372Z,11.14
2016-04-08T01:35:24.390Z,11.15
2016-04-08T01:36:24.425Z,11.11
2016-04-08T01:37:24.442Z,11.12
2016-04-08T01:38:24.461Z,11.12
2016-04-08T01:39:24.479Z,11.15
2016-04-08T01:40:24.497Z,11.04
2016-04-08T01:41:24.516Z,11.07
2016-04-08T01:42:24.533Z,11.05
2016-04-08T01:43:24.536Z,11.15
2016-04-08T01:44:24.585Z,11
2016-04-08T01:45:24.588Z,11.1
2016-04-08T01:46:24.607Z,11
2016-04-08T01:47:24.641Z,11.02
2016-04-08T01:48:24.675Z,11.02
2016-04-08T01:49:24.677Z,11
2016-04-08T01:50:24.680Z,11.04
2016-04-08T01:51:24.714Z,11.04
2016-04-08T01:52:24.748Z,11
2016-04-08T01:53:24.767Z,10.99
2016-04-08T01:54:24.769Z,10.97
2016-04-08T01:55:24.787Z,11.02
2016-04-08T01:56:24.805Z,10.99
2016-04-08T01:57:24.839Z,10.99
2016-04-08T01:58:24.858Z,11.02
2016-04-08T01:59:24.861Z,10.93
2016-04-08T02:00:24.911Z,10.99
2016-04-08T02:01:24.913Z,10.96
2016-04-08T02:02:24.931Z,10.9
2016-04-08T02:03:24.950Z,10.99
2016-04-08T02:04:24.984Z,10.99
2016-04-08T02:05:24.986Z,10.96
2016-04-08T02:06:25.005Z,10.9
2016-04-08T02:07:25.038Z,10.92
2016-04-08T02:08:25.039Z,10.89
2016-04-08T02:09:25.073Z,10.86
2016-04-08T02:10:25.107Z,10.92
2016-04-08T02:11:25.110Z,10.94
2016-04-08T02:12:25.144Z,10.87
2016-04-08T02:13:25.147Z,10.84
2016-04-08T02:14:25.164Z,10.93
2016-04-08T02:15:25.183Z,10.92
2016-04-08T02:16:25.202Z,10.86
2016-04-08T02:17:25.219Z,10.86
2016-04-08T02:18:25.253Z,10.87
2016-04-08T02:19:25.271Z,10.76
2016-04-08T02:20:25.290Z,10.84
2016-04-08T02:21:25.293Z,10.81
2016-04-08T02:22:25.326Z,10.82
2016-04-08T02:23:25.360Z,10.86
2016-04-08T02:24:25.363Z,10.79
2016-04-08T02:25:25.397Z,10.74
2016-04-08T02:26:25.416Z,10.86
2016-04-08T02:27:25.435Z,10.81
2016-04-08T02:28:25.562Z,10.86
2016-04-08T02:29:25.455Z,10.92
2016-04-08T02:30:25.473Z,10.86
2016-04-08T02:31:25.507Z,10.82
2016-04-08T02:32:25.525Z,10.79
2016-04-08T02:33:25.543Z,10.69
2016-04-08T02:34:25.562Z,10.82
2016-04-08T02:35:25.581Z,10.78
2016-04-08T02:36:25.584Z,10.78
2016-04-08T02:37:25.617Z,10.76
2016-04-08T02:38:24.886Z,10.76
2016-04-08T02:39:25.654Z,10.78
2016-04-08T02:40:25.672Z,10.75
2016-04-08T02:41:25.690Z,10.75
2016-04-08T02:42:25.708Z,10.75
2016-04-08T02:43:25.727Z,10.81
2016-04-08T02:44:25.745Z,10.79
2016-04-08T02:45:25.825Z,10.81
2016-04-08T02:46:25.797Z,10.79
2016-04-08T02:47:25.816Z,10.78
2016-04-08T02:48:25.834Z,10.76
2016-04-08T02:49:25.852Z,10.78
2016-04-08T02:50:25.871Z,10.82
2016-04-08T02:51:25.889Z,10.76
2016-04-08T02:52:25.908Z,10.74
2016-04-08T02:53:25.941Z,10.75
2016-04-08T02:54:25.960Z,10.74
2016-04-08T02:55:25.963Z,10.75
2016-04-08T02:56:25.980Z,10.76
2016-04-08T02:57:26.015Z,10.75
2016-04-08T02:58:25.954Z,10.72
2016-04-08T02:59:26.051Z,10.72
2016-04-08T03:00:26.070Z,10.69
2016-04-08T03:01:26.119Z,10.69
2016-04-08T03:02:26.107Z,10.71
2016-04-08T03:03:26.124Z,10.71
2016-04-08T03:04:26.143Z,10.68
2016-04-08T03:05:26.176Z,10.74
2016-04-08T03:06:26.179Z,10.67
2016-04-08T03:07:26.198Z,10.63
2016-04-08T03:08:26.231Z,10.63
2016-04-08T03:09:26.234Z,10.61
2016-04-08T03:10:26.252Z,10.61
2016-04-08T03:11:26.286Z,10.68
2016-04-08T03:12:26.289Z,10.57
2016-04-08T03:13:26.182Z,10.57
2016-04-08T03:14:26.326Z,10.61
2016-04-08T03:15:26.360Z,10.69
2016-04-08T03:16:26.394Z,10.64
2016-04-08T03:17:26.397Z,10.64
2016-04-08T03:18:26.430Z,10.67
2016-04-08T03:19:26.433Z,10.6
2016-04-08T03:20:26.452Z,10.56
2016-04-08T03:21:25.719Z,10.56
2016-04-08T03:22:26.488Z,10.56
2016-04-08T03:23:26.522Z,10.57
2016-04-08T03:24:26.572Z,10.59
2016-04-08T03:25:26.544Z,10.6
2016-04-08T03:26:26.577Z,10.61
2016-04-08T03:27:26.596Z,10.54
2016-04-08T03:28:26.661Z,10.57
2016-04-08T03:29:26.632Z,10.56
2016-04-08T03:30:26.651Z,10.56
2016-04-08T03:31:26.668Z,10.54
2016-04-08T03:32:26.687Z,10.54
2016-04-08T03:33:26.720Z,10.53
2016-04-08T03:34:26.723Z,10.53
2016-04-08T03:35:26.775Z,10.53
2016-04-08T03:36:26.837Z,10.42
2016-04-08T03:37:26.900Z,10.51
2016-04-08T03:38:26.962Z,10.41
2016-04-08T03:39:27.024Z,10.46
2016-04-08T03:40:27.065Z,10.42
2016-04-08T03:41:27.098Z,10.42
2016-04-08T03:42:27.148Z,10.41
2016-04-08T03:43:27.448Z,10.42
2016-04-08T03:44:27.216Z,10.37
2016-04-08T03:45:27.243Z,10.4
2016-04-08T03:46:27.251Z,10.4
2016-04-08T03:47:27.289Z,10.35
2016-04-08T03:48:27.312Z,10.48
2016-04-08T03:49:27.336Z,10.37
2016-04-08T03:50:27.358Z,10.4
2016-04-08T03:51:27.378Z,10.4
2016-04-08T03:52:27.399Z,10.35
2016-04-08T03:53:27.434Z,10.35
2016-04-08T03:54:27.455Z,10.31
2016-04-08T03:55:27.474Z,10.41
2016-04-08T03:56:27.477Z,10.3
2016-04-08T03:57:27.512Z,10.3
2016-04-08T03:58:27.625Z,10.35
2016-04-08T03:59:27.534Z,10.28
2016-04-08T04:00:27.569Z,10.4
2016-04-08T04:01:27.587Z,10.35
2016-04-08T04:02:27.591Z,10.37
2016-04-08T04:03:27.625Z,10.28
2016-04-08T04:04:27.644Z,10.33
2016-04-08T04:05:27.663Z,10.3
2016-04-08T04:06:27.680Z,10.33
2016-04-08T04:07:27.699Z,10.28
2016-04-08T04:08:27.717Z,10.33
2016-04-08T04:09:27.735Z,10.3
2016-04-08T04:10:27.754Z,10.23
2016-04-08T04:11:27.771Z,10.25
2016-04-08T04:12:27.790Z,10.28
2016-04-08T04:13:27.809Z,10.25
2016-04-08T04:14:27.826Z,10.23
2016-04-08T04:15:27.846Z,10.26
2016-04-08T04:16:27.864Z,10.28
2016-04-08T04:17:27.882Z,10.23
2016-04-08T04:18:27.901Z,10.22
2016-04-08T04:19:27.934Z,10.19
2016-04-08T04:20:27.953Z,10.3
2016-04-08T04:21:27.970Z,10.15
2016-04-08T04:22:27.989Z,10.16
2016-04-08T04:23:27.992Z,10.13
2016-04-08T04:24:28.042Z,10.2
2016-04-08T04:25:28.044Z,10.09
2016-04-08T04:26:28.047Z,10.15
2016-04-08T04:27:28.080Z,10.2
2016-04-08T04:28:28.099Z,10.16
2016-04-08T04:29:28.102Z,10.19
2016-04-08T04:30:28.136Z,10.17
2016-04-08T04:31:28.155Z,10.17
2016-04-08T04:32:28.172Z,10.12
2016-04-08T04:33:28.206Z,10.15
2016-04-08T04:34:28.208Z,10.1
2016-04-08T04:35:28.227Z,10.13
2016-04-08T04:36:28.246Z,10.13
2016-04-08T04:37:28.263Z,10.1
2016-04-08T04:38:28.282Z,10.2
2016-04-08T04:39:28.301Z,10.09
2016-04-08T04:40:28.319Z,10.1
2016-04-08T04:41:28.338Z,10.07
2016-04-08T04:42:28.355Z,10.09
2016-04-08T04:43:28.374Z,10.09
2016-04-08T04:44:28.392Z,10.07
2016-04-08T04:45:28.410Z,10.07
2016-04-08T04:46:28.429Z,10.13
2016-04-08T04:47:28.462Z,10.1
2016-04-08T04:48:28.481Z,10.12
2016-04-08T04:49:27.061Z,10.05
2016-04-08T04:50:28.501Z,10.09
2016-04-08T04:51:28.536Z,10.1
2016-04-08T04:52:28.539Z,10.12
2016-04-08T04:53:28.572Z,10.1
2016-04-08T04:54:28.592Z,10.09
2016-04-08T04:55:28.609Z,10.07
2016-04-08T04:56:28.628Z,10.13
2016-04-08T04:57:28.646Z,10.09
2016-04-08T04:58:28.664Z,10.07
2016-04-08T04:59:28.526Z,10.12
2016-04-08T05:00:28.716Z,10.1
2016-04-08T05:01:28.719Z,10.09
2016-04-08T05:02:28.753Z,10.12
2016-04-08T05:03:28.755Z,10.07
2016-04-08T05:04:28.774Z,9.99
2016-04-08T05:05:28.791Z,9.99
2016-04-08T05:06:28.810Z,10.01
2016-04-08T05:07:28.829Z,9.97
2016-04-08T05:08:28.832Z,10.02
2016-04-08T05:09:28.882Z,10.01
2016-04-08T05:10:28.915Z,9.99
2016-04-08T05:11:28.902Z,9.97
2016-04-08T05:12:28.921Z,9.97
2016-04-08T05:13:28.938Z,9.94
2016-04-08T05:14:28.973Z,9.97
2016-04-08T05:15:28.976Z,9.97
2016-04-08T05:16:29.009Z,9.99
2016-04-08T05:17:29.029Z,9.98
2016-04-08T05:18:29.046Z,9.97
2016-04-08T05:19:29.065Z,9.99
2016-04-08T05:20:29.287Z,9.97
2016-04-08T05:21:29.101Z,9.95
2016-04-08T05:22:29.120Z,9.95
2016-04-08T05:23:29.137Z,9.98
2016-04-08T05:24:29.156Z,9.98
2016-04-08T05:25:29.175Z,10.04
2016-04-08T05:26:29.192Z,9.92
2016-04-08T05:27:29.211Z,9.92
2016-04-08T05:28:29.228Z,9.95
2016-04-08T05:29:29.247Z,9.95
2016-04-08T05:30:29.266Z,9.94
2016-04-08T05:31:29.284Z,9.91
2016-04-08T05:32:29.303Z,9.97
2016-04-08T05:33:29.336Z,9.91
2016-04-08T05:34:29.355Z,9.97
2016-04-08T05:35:29.358Z,9.97
2016-04-08T05:36:29.376Z,9.97
2016-04-08T05:37:29.394Z,9.98
2016-04-08T05:38:29.413Z,9.92
2016-04-08T05:39:29.446Z,9.99
2016-04-08T05:40:29.449Z,9.92
2016-04-08T05:41:29.468Z,9.95
2016-04-08T05:42:29.485Z,10.01
2016-04-08T05:43:29.504Z,9.97
2016-04-08T05:44:29.537Z,9.95
2016-04-08T05:45:29.556Z,9.98
2016-04-08T05:46:29.574Z,9.97
2016-04-08T05:47:29.576Z,10.04
2016-04-08T05:48:29.596Z,9.99
2016-04-08T05:49:29.614Z,10.02
2016-04-08T05:50:29.632Z,9.95
2016-04-08T05:51:29.666Z,9.98
2016-04-08T05:52:29.668Z,9.97
2016-04-08T05:53:29.687Z,9.97
2016-04-08T05:54:29.752Z,9.97
2016-04-08T05:55:29.723Z,9.95
2016-04-08T05:56:29.742Z,9.95
2016-04-08T05:57:29.791Z,9.95
2016-04-08T05:58:29.794Z,9.97
2016-04-08T05:59:29.812Z,10.1
2016-04-08T06:00:29.815Z,10.02
2016-04-08T06:01:29.850Z,10.09
2016-04-08T06:02:29.867Z,10.02
2016-04-08T06:03:29.886Z,10.04
2016-04-08T06:04:29.905Z,10.13
2016-04-08T06:05:29.922Z,10.09
2016-04-08T06:06:29.941Z,10.15
2016-04-08T06:07:29.959Z,10.13
2016-04-08T06:08:29.977Z,10.15
2016-04-08T06:09:30.011Z,10.1
2016-04-08T06:10:30.013Z,10.12
2016-04-08T06:11:30.032Z,10.12
2016-04-08T06:12:30.051Z,10.22
2016-04-08T06:13:30.069Z,10.19
2016-04-08T06:14:30.087Z,10.19
2016-04-08T06:15:30.106Z,10.26
2016-04-08T06:16:30.140Z,10.26
2016-04-08T06:17:30.174Z,10.28
2016-04-08T06:18:30.160Z,10.23
2016-04-08T06:19:30.179Z,10.28
2016-04-08T06:20:30.213Z,10.3
2016-04-08T06:21:30.215Z,10.33
2016-04-08T06:22:30.437Z,10.35
2016-04-08T06:23:30.284Z,10.3
2016-04-08T06:24:30.270Z,10.3
2016-04-08T06:25:30.351Z,10.3
2016-04-08T06:26:30.322Z,10.37
2016-04-08T06:27:30.387Z,10.34
2016-04-08T06:28:30.359Z,10.4
2016-04-08T06:29:30.361Z,10.41
2016-04-08T06:30:30.395Z,10.42
2016-04-08T06:31:30.414Z,10.42
2016-04-08T06:32:30.433Z,10.44
2016-04-08T06:33:30.451Z,10.46
2016-04-08T06:34:30.454Z,10.41
2016-04-08T06:35:29.738Z,10.56
2016-04-08T06:36:30.506Z,10.57
2016-04-08T06:37:30.525Z,10.6
2016-04-08T06:38:30.528Z,10.57
2016-04-08T06:39:30.561Z,10.56
2016-04-08T06:40:30.580Z,10.56
2016-04-08T06:41:30.583Z,10.6
2016-04-08T06:42:30.616Z,10.64
2016-04-08T06:43:30.619Z,10.61
2016-04-08T06:44:30.653Z,10.63
2016-04-08T06:45:30.671Z,10.63
2016-04-08T06:46:30.752Z,10.78
2016-04-08T06:47:30.708Z,10.74
2016-04-08T06:48:30.727Z,10.81
2016-04-08T06:49:30.744Z,10.72
2016-04-08T06:50:30.763Z,10.76
2016-04-08T06:51:30.781Z,10.78
2016-04-08T06:52:30.799Z,10.81
2016-04-08T06:53:30.817Z,10.79
2016-04-08T06:54:30.835Z,10.9
2016-04-08T06:55:30.854Z,10.84
2016-04-08T06:56:30.888Z,10.9
2016-04-08T06:57:30.890Z,10.99
2016-04-08T06:58:30.909Z,10.93
2016-04-08T06:59:30.943Z,11
2016-04-08T07:00:30.935Z,11.02
2016-04-08T07:01:30.969Z,11.07
2016-04-08T07:02:30.987Z,11.19
2016-04-08T07:03:31.005Z,11.12
2016-04-08T07:04:31.024Z,11.19
2016-04-08T07:05:31.041Z,11.23
2016-04-08T07:06:31.060Z,11.22
2016-04-08T07:07:31.094Z,11.23
2016-04-08T07:08:31.145Z,11.3
2016-04-08T07:09:31.319Z,11.3
2016-04-08T07:10:31.135Z,11.37
2016-04-08T07:11:31.153Z,11.37
2016-04-08T07:12:31.172Z,11.37
2016-04-08T07:13:31.189Z,11.4
2016-04-08T07:14:31.396Z,11.43
2016-04-08T07:15:31.226Z,11.52
2016-04-08T07:16:31.261Z,11.48
2016-04-08T07:17:31.263Z,11.52
2016-04-08T07:18:31.297Z,11.6
2016-04-08T07:19:31.300Z,11.72
2016-04-08T07:20:31.333Z,11.7
2016-04-08T07:21:31.336Z,11.75
2016-04-08T07:22:31.369Z,11.78
2016-04-08T07:23:31.389Z,11.84
2016-04-08T07:24:31.407Z,11.83
2016-04-08T07:25:31.269Z,11.87
2016-04-08T07:26:31.460Z,11.95
2016-04-08T07:27:31.462Z,11.91
2016-04-08T07:28:31.511Z,12.02
2016-04-08T07:29:31.498Z,12.04
2016-04-08T07:30:31.517Z,11.97
2016-04-08T07:31:31.551Z,11.99
2016-04-08T07:32:31.553Z,12.03
2016-04-08T07:33:31.587Z,12.09
2016-04-08T07:34:31.606Z,12.13
2016-04-08T07:35:31.624Z,12.17
2016-04-08T07:36:31.626Z,12.28
2016-04-08T07:37:31.660Z,12.31
2016-04-08T07:38:31.679Z,12.28
2016-04-08T07:39:31.682Z,12.32
2016-04-08T07:40:31.715Z,12.31
2016-04-08T07:41:31.750Z,12.35
2016-04-08T07:42:31.753Z,12.27
2016-04-08T07:43:31.771Z,12.42
2016-04-08T07:44:31.914Z,12.28
2016-04-08T07:45:31.806Z,12.37
2016-04-08T07:46:31.841Z,12.45
2016-04-08T07:47:31.859Z,12.46
2016-04-08T07:48:31.878Z,12.53
2016-04-08T07:49:31.897Z,12.5
2016-04-08T07:50:31.900Z,12.7
2016-04-08T07:51:31.933Z,12.64
2016-04-08T07:52:32.154Z,12.67
2016-04-08T07:53:32.001Z,12.68
2016-04-08T07:54:31.988Z,12.75
2016-04-08T07:55:32.006Z,12.85
2016-04-08T07:56:32.024Z,12.83
2016-04-08T07:57:32.058Z,12.98
2016-04-08T07:58:32.061Z,12.9
2016-04-08T07:59:32.204Z,12.95
2016-04-08T08:00:32.097Z,12.97
2016-04-08T08:01:32.132Z,13.09
2016-04-08T08:02:32.134Z,13.13
2016-04-08T08:03:32.168Z,13.2
2016-04-08T08:04:32.186Z,13.2
2016-04-08T08:05:32.205Z,13.37
2016-04-08T08:06:32.832Z,13.35
2016-04-08T08:07:32.273Z,13.37
2016-04-08T08:08:32.275Z,13.39
2016-04-08T08:09:32.278Z,13.47
2016-04-08T08:10:32.312Z,13.52
2016-04-08T08:11:32.314Z,13.56
2016-04-08T08:12:32.599Z,13.57
2016-04-08T08:13:32.351Z,13.67
2016-04-08T08:14:32.495Z,13.77
2016-04-08T08:15:32.637Z,13.79
2016-04-08T08:16:32.437Z,13.78
2016-04-08T08:17:32.456Z,13.85
2016-04-08T08:18:32.458Z,13.86
2016-04-08T08:19:32.492Z,13.9
2016-04-08T08:20:32.511Z,13.89
2016-04-08T08:21:32.529Z,13.97
2016-04-08T08:22:32.547Z,14.05
2016-04-08T08:23:32.581Z,14.04
2016-04-08T08:24:32.584Z,14.04
2016-04-08T08:25:32.602Z,14.08
2016-04-08T08:26:32.621Z,14.03
2016-04-08T08:27:32.639Z,14.08
2016-04-08T08:28:32.673Z,14.07
2016-04-08T08:29:32.816Z,14.07
2016-04-08T08:30:32.568Z,14.11
2016-04-08T08:31:32.728Z,14.14
2016-04-08T08:32:32.746Z,14.22
2016-04-08T08:33:32.780Z,14.22
2016-04-08T08:34:32.799Z,14.22
2016-04-08T08:35:32.801Z,14.33
2016-04-08T08:36:32.835Z,14.32
2016-04-08T08:37:32.854Z,14.4
2016-04-08T08:38:32.856Z,14.51
2016-04-08T08:39:32.890Z,14.65
2016-04-08T08:40:32.908Z,14.7
2016-04-08T08:41:32.926Z,14.77
2016-04-08T08:42:32.960Z,14.84
2016-04-08T08:43:32.978Z,14.85
2016-04-08T08:44:33.184Z,14.91
2016-04-08T08:45:33.015Z,15.03
2016-04-08T08:46:33.034Z,14.99
2016-04-08T08:47:33.052Z,15.07
2016-04-08T08:48:33.070Z,15.09
2016-04-08T08:49:33.089Z,15.17
2016-04-08T08:50:33.106Z,15.14
2016-04-08T08:51:33.141Z,15.18
2016-04-08T08:52:33.158Z,15.19
2016-04-08T08:53:33.740Z,15.31
2016-04-08T08:54:33.196Z,15.36
2016-04-08T08:55:33.230Z,15.37
2016-04-08T08:56:33.248Z,15.35
2016-04-08T08:57:33.250Z,15.4
2016-04-08T08:58:33.285Z,15.51
2016-04-08T08:59:33.319Z,15.52
2016-04-08T09:00:33.337Z,15.51
2016-04-08T09:01:33.340Z,15.61
2016-04-08T09:02:33.373Z,15.59
2016-04-08T09:03:33.408Z,15.62
2016-04-08T09:04:33.504Z,15.59
2016-04-08T09:05:33.429Z,15.68
2016-04-08T09:06:33.447Z,15.58
2016-04-08T09:07:33.481Z,15.67
2016-04-08T09:08:33.499Z,15.62
2016-04-08T09:09:33.517Z,15.64
2016-04-08T09:10:33.552Z,15.64
2016-04-08T09:11:33.570Z,15.7
2016-04-08T09:12:33.587Z,15.67
2016-04-08T09:13:33.606Z,15.75
2016-04-08T09:14:33.625Z,15.8
2016-04-08T09:15:33.659Z,15.9
2016-04-08T09:16:34.068Z,15.91
2016-04-08T09:17:33.914Z,15.97
2016-04-08T09:18:33.713Z,16.05
2016-04-08T09:19:33.747Z,16.15
2016-04-08T09:20:33.750Z,16.15
2016-04-08T09:21:33.894Z,16.21
2016-04-08T09:22:34.114Z,16.28
2016-04-08T09:23:33.820Z,16.46
2016-04-08T09:24:33.839Z,16.47
2016-04-08T09:25:33.857Z,16.53
2016-04-08T09:26:33.908Z,16.57
2016-04-08T09:27:33.910Z,16.54
2016-04-08T09:28:33.943Z,16.54
2016-04-08T09:29:33.947Z,16.65
2016-04-08T09:30:33.980Z,16.64
2016-04-08T09:31:33.999Z,16.68
2016-04-08T09:32:34.016Z,16.61
2016-04-08T09:33:34.035Z,16.71
2016-04-08T09:34:34.085Z,16.76
2016-04-08T09:35:34.072Z,16.76
2016-04-08T09:36:34.106Z,16.79
2016-04-08T09:37:34.124Z,16.79
2016-04-08T09:38:34.142Z,16.81
2016-04-08T09:39:34.176Z,16.83
2016-04-08T09:40:34.195Z,16.81
2016-04-08T09:41:34.228Z,16.76
2016-04-08T09:42:34.231Z,16.96
2016-04-08T09:43:34.265Z,16.94
2016-04-08T09:44:34.283Z,16.97
2016-04-08T09:45:34.301Z,17.01
2016-04-08T09:46:34.336Z,16.97
2016-04-08T09:47:34.354Z,17.11
2016-04-08T09:48:34.372Z,17.04
2016-04-08T09:49:34.406Z,17.14
2016-04-08T09:50:34.706Z,17.15
2016-04-08T09:51:34.442Z,17.23
2016-04-08T09:52:34.477Z,17.3
2016-04-08T09:53:34.480Z,17.38
2016-04-08T09:54:34.513Z,17.51
2016-04-08T09:55:34.532Z,17.57
2016-04-08T09:56:34.550Z,17.59
2016-04-08T09:57:34.572Z,17.57
2016-04-08T09:58:35.293Z,17.59
2016-04-08T09:59:34.624Z,17.67
2016-04-08T10:00:34.643Z,17.71
2016-04-08T10:01:34.662Z,17.76
2016-04-08T10:02:34.679Z,17.8
2016-04-08T10:03:34.714Z,17.87
2016-04-08T10:04:34.888Z,17.9
2016-04-08T10:05:34.765Z,17.97
2016-04-08T10:06:34.768Z,18.07
2016-04-08T10:07:34.802Z,18.04
2016-04-08T10:08:34.836Z,18.03
2016-04-08T10:09:34.839Z,18.19
2016-04-08T10:10:34.888Z,18.1
2016-04-08T10:11:35.095Z,18.22
2016-04-08T10:12:34.941Z,18.2
2016-04-08T10:13:34.943Z,18.37
2016-04-08T10:14:34.961Z,18.41
2016-04-08T10:15:34.996Z,18.35
2016-04-08T10:16:35.045Z,18.47
2016-04-08T10:17:35.032Z,18.49
2016-04-08T10:18:35.050Z,18.6
2016-04-08T10:19:35.085Z,18.62
2016-04-08T10:20:35.102Z,18.75
2016-04-08T10:21:35.122Z,18.75
2016-04-08T10:22:35.155Z,18.74
2016-04-08T10:23:35.188Z,18.88
2016-04-08T10:24:35.192Z,18.95
2016-04-08T10:25:35.210Z,18.92
2016-04-08T10:26:35.244Z,18.88
2016-04-08T10:27:35.262Z,18.98
2016-04-08T10:28:35.296Z,19.07
2016-04-08T10:29:35.315Z,19.11
2016-04-08T10:30:35.349Z,19.15
2016-04-08T10:31:35.351Z,19.24
2016-04-08T10:32:35.416Z,19.26
2016-04-08T10:33:35.403Z,19.24
2016-04-08T10:34:35.437Z,19.31
2016-04-08T10:35:35.456Z,19.41
2016-04-08T10:36:35.473Z,19.4
2016-04-08T10:37:35.508Z,19.55
2016-04-08T10:38:35.729Z,19.63
2016-04-08T10:39:35.576Z,19.54
2016-04-08T10:40:35.578Z,19.67
2016-04-08T10:41:35.597Z,19.74
2016-04-08T10:42:35.630Z,19.66
2016-04-08T10:43:35.650Z,19.88
2016-04-08T10:44:36.074Z,19.88
2016-04-08T10:45:35.702Z,19.92
2016-04-08T10:46:35.735Z,19.94
2016-04-08T10:47:35.738Z,19.99
2016-04-08T10:48:35.788Z,20
2016-04-08T10:49:35.806Z,20.06
2016-04-08T10:50:35.840Z,20.09
2016-04-08T10:51:35.857Z,20.18
2016-04-08T10:52:35.861Z,20.14
2016-04-08T10:53:35.894Z,20.16
2016-04-08T10:54:35.929Z,20.24
2016-04-08T10:55:35.946Z,20.16
2016-04-08T10:56:35.965Z,20.31
2016-04-08T10:57:35.984Z,20.25
2016-04-08T10:58:36.018Z,20.28
2016-04-08T10:59:36.036Z,20.36
2016-04-08T11:00:36.067Z,20.37
2016-04-08T11:01:36.084Z,20.43
2016-04-08T11:02:36.135Z,20.34
2016-04-08T11:03:36.153Z,20.41
2016-04-08T11:04:36.171Z,20.47
2016-04-08T11:05:36.190Z,20.48
2016-04-08T11:06:36.223Z,20.5
2016-04-08T11:07:36.242Z,20.56
2016-04-08T11:08:36.260Z,20.66
2016-04-08T11:09:36.294Z,20.65
2016-04-08T11:10:36.328Z,20.59
2016-04-08T11:11:36.347Z,20.6
2016-04-08T11:12:36.364Z,20.62
2016-04-08T11:13:36.383Z,20.59
2016-04-08T11:14:36.416Z,20.7
2016-04-08T11:15:36.435Z,20.75
2016-04-08T11:16:36.469Z,20.7
2016-04-08T11:17:36.691Z,20.62
2016-04-08T11:18:36.710Z,20.67
2016-04-08T11:19:36.540Z,20.66
2016-04-08T11:20:36.574Z,20.72
2016-04-08T11:21:36.608Z,20.72
2016-04-08T11:22:36.626Z,20.75
2016-04-08T11:23:36.643Z,20.75
2016-04-08T11:24:36.679Z,20.77
2016-04-08T11:25:36.696Z,20.77
2016-04-08T11:26:36.730Z,20.8
2016-04-08T11:27:36.951Z,20.82
2016-04-08T11:28:36.767Z,20.84
2016-04-08T11:29:36.801Z,20.77
2016-04-08T11:30:36.820Z,20.84
2016-04-08T11:31:36.900Z,20.77
2016-04-08T11:32:36.872Z,20.85
2016-04-08T11:33:36.889Z,20.85
2016-04-08T11:34:37.128Z,20.95
2016-04-08T11:35:36.958Z,20.92
2016-04-08T11:36:36.992Z,20.92
2016-04-08T11:37:36.995Z,21.02
2016-04-08T11:38:37.044Z,21.02
2016-04-08T11:39:37.047Z,21.07
2016-04-08T11:40:37.081Z,21.07
2016-04-08T11:41:37.114Z,21.14
2016-04-08T11:42:37.149Z,21.21
2016-04-08T11:43:37.183Z,21.14
2016-04-08T11:44:37.185Z,21.09
2016-04-08T11:45:37.202Z,21.2
2016-04-08T11:46:37.237Z,21.18
2016-04-08T11:47:37.272Z,21.2
2016-04-08T11:48:37.274Z,21.15
2016-04-08T11:49:37.308Z,21.24
2016-04-08T11:50:37.326Z,21.17
2016-04-08T11:51:37.376Z,21.21
2016-04-08T11:52:37.644Z,21.27
2016-04-08T11:53:37.413Z,21.22
2016-04-08T11:54:37.649Z,21.22
2016-04-08T11:55:37.464Z,21.27
2016-04-08T11:56:37.499Z,21.37
2016-04-08T11:57:37.517Z,21.42
2016-04-08T11:58:37.567Z,21.46
2016-04-08T11:59:37.570Z,21.46
2016-04-08T12:00:37.603Z,21.55
2016-04-08T12:01:37.621Z,21.6
2016-04-08T12:02:37.656Z,21.69
2016-04-08T12:03:37.673Z,21.77
2016-04-08T12:04:37.692Z,21.83
2016-04-08T12:05:37.725Z,21.93
2016-04-08T12:06:37.760Z,21.99
2016-04-08T12:07:37.778Z,22.08
2016-04-08T12:08:37.818Z,22.1
2016-04-08T12:09:37.837Z,22.26
2016-04-08T12:10:37.870Z,22.29
2016-04-08T12:11:37.889Z,22.32
2016-04-08T12:12:37.923Z,22.36
2016-04-08T12:13:37.941Z,22.33
2016-04-08T12:14:37.959Z,22.5
2016-04-08T12:15:38.009Z,22.53
2016-04-08T12:16:38.027Z,22.5
2016-04-08T12:17:38.248Z,22.54
2016-04-08T12:18:38.080Z,22.65
2016-04-08T12:19:38.113Z,22.65
2016-04-08T12:20:38.131Z,22.6
2016-04-08T12:21:38.165Z,22.69
2016-04-08T12:22:38.183Z,22.75
2016-04-08T12:23:38.202Z,22.83
2016-04-08T12:24:38.235Z,22.84
2016-04-08T12:25:38.269Z,22.83
2016-04-08T12:26:38.288Z,22.78
2016-04-08T12:27:38.321Z,22.96
2016-04-08T12:28:38.356Z,22.85
2016-04-08T12:29:38.374Z,22.94
2016-04-08T12:30:38.486Z,22.96
2016-04-08T12:31:38.426Z,22.94
2016-04-08T12:32:38.460Z,22.99
2016-04-08T12:33:38.479Z,23
2016-04-08T12:34:38.512Z,22.99
2016-04-08T12:35:38.546Z,23.09
2016-04-08T12:36:38.581Z,23.17
2016-04-08T12:37:38.614Z,23.09
2016-04-08T12:38:38.633Z,23.1
2016-04-08T12:39:38.667Z,23.17
2016-04-08T12:40:38.700Z,23.21
2016-04-08T12:41:38.775Z,23.21
2016-04-08T12:42:38.818Z,23.2
2016-04-08T12:43:38.894Z,23.21
2016-04-08T12:44:38.952Z,23.24
2016-04-08T12:45:39.026Z,23.36
2016-04-08T12:46:39.060Z,23.24
2016-04-08T12:47:39.124Z,23.36
2016-04-08T12:48:39.157Z,23.36
2016-04-08T12:49:39.189Z,23.34
2016-04-08T12:50:39.488Z,23.4
2016-04-08T12:51:39.262Z,23.54
2016-04-08T12:52:39.301Z,23.46
2016-04-08T12:53:39.528Z,23.54
2016-04-08T12:54:39.364Z,23.62
2016-04-08T12:55:39.388Z,23.56
2016-04-08T12:56:39.424Z,23.63
2016-04-08T12:57:39.459Z,23.66